Time;durP1;ratioP1;P1;durP2;ratioP2;P2;SDS_P1;SDS_P2;PMS_P1;PMS_P2;Temp;Humidity;BMP_temperature;BMP_pressure;BME280_temperature;BME280_humidity;BME280_pressure;Samples;Min_cycle;Max_cycle;Signal;HPM_P1;HPM_P2
2023/12/15 00:01:29;;;;;;;23.13;11.50;;;5.10;99.90;;;;;;5074617;28;20220;-49
2023/12/15 00:03:58;;;;;;;21.03;10.53;;;5.20;99.90;;;;;;5074569;28;20177;-47
2023/12/15 00:06:24;;;;;;;22.53;9.53;;;5.20;99.90;;;;;;5074920;28;20162;-46
2023/12/15 00:08:49;;;;;;;23.43;11.60;;;5.20;99.90;;;;;;5074482;28;20172;-49
2023/12/15 00:11:18;;;;;;;21.50;10.60;;;5.30;99.90;;;;;;5074453;28;20181;-47
2023/12/15 00:13:56;;;;;;;25.63;11.63;;;5.30;99.90;;;;;;5074525;28;20670;-47
2023/12/15 00:16:24;;;;;;;18.90;8.73;;;5.30;99.90;;;;;;5074617;28;20177;-49
2023/12/15 00:18:50;;;;;;;21.60;11.00;;;5.30;99.90;;;;;;5074880;28;20170;-48
2023/12/15 00:21:15;;;;;;;19.97;10.97;;;5.40;99.90;;;;;;5074461;28;20201;-48
2023/12/15 00:23:41;;;;;;;27.73;10.23;;;5.30;99.90;;;;;;5074533;28;20232;-47
2023/12/15 00:26:07;;;;;;;19.83;10.63;;;5.40;99.90;;;;;;5075175;28;20645;-48
2023/12/15 00:28:39;;;;;;;22.87;10.70;;;5.40;99.90;;;;;;5074222;28;20168;-47
2023/12/15 00:31:05;;;;;;;27.80;11.43;;;5.40;99.90;;;;;;5056577;28;20556;-47
2023/12/15 00:33:31;;;;;;;16.77;9.87;;;5.40;99.90;;;;;;5074732;28;20196;-47
2023/12/15 00:35:59;;;;;;;23.57;10.60;;;5.50;99.90;;;;;;5074285;28;20645;-49
2023/12/15 00:38:25;;;;;;;20.57;10.60;;;5.50;99.90;;;;;;5074780;28;20518;-47
2023/12/15 00:40:54;;;;;;;19.30;10.23;;;5.50;99.90;;;;;;5074000;28;20209;-47
2023/12/15 00:43:20;;;;;;;14.57;8.83;;;5.50;99.90;;;;;;5073939;28;20200;-48
2023/12/15 00:45:46;;;;;;;20.13;10.27;;;5.50;99.90;;;;;;5074101;28;20646;-50
2023/12/15 00:48:13;;;;;;;17.57;10.23;;;5.50;99.90;;;;;;5056095;28;20212;-48
2023/12/15 00:50:38;;;;;;;19.47;10.73;;;5.50;99.90;;;;;;5073699;28;20731;-47
2023/12/15 00:53:06;;;;;;;21.90;11.90;;;5.50;99.90;;;;;;5073997;28;20205;-48
2023/12/15 00:55:35;;;;;;;21.90;10.77;;;5.60;99.90;;;;;;5073695;28;20594;-47
2023/12/15 00:58:04;;;;;;;18.03;10.07;;;5.60;99.90;;;;;;5073634;28;20190;-48
2023/12/15 01:00:31;;;;;;;26.57;11.47;;;5.60;99.90;;;;;;5073729;28;20293;-48
2023/12/15 01:02:58;;;;;;;19.23;11.30;;;5.60;99.90;;;;;;5073626;28;20711;-48
2023/12/15 01:05:23;;;;;;;23.50;11.87;;;5.60;99.90;;;;;;5055960;28;20201;-49
2023/12/15 01:07:49;;;;;;;20.77;11.17;;;5.60;99.90;;;;;;5073596;28;20640;-49
2023/12/15 01:10:16;;;;;;;21.67;12.60;;;5.60;99.90;;;;;;5073769;28;20206;-49
2023/12/15 01:12:45;;;;;;;25.33;12.00;;;5.70;99.90;;;;;;5073638;28;20197;-50
2023/12/15 01:15:10;;;;;;;27.57;12.53;;;5.70;99.90;;;;;;5073817;28;20180;-46
2023/12/15 01:17:36;;;;;;;22.07;12.43;;;5.70;99.90;;;;;;5055709;28;20618;-48
2023/12/15 01:20:02;;;;;;;20.73;11.43;;;5.70;99.90;;;;;;5073417;28;20198;-48
2023/12/15 01:22:40;;;;;;;27.67;12.43;;;5.70;99.90;;;;;;5073324;28;20246;-47
2023/12/15 01:25:07;;;;;;;21.83;12.23;;;5.70;99.90;;;;;;5055614;28;20189;-47
2023/12/15 01:27:32;;;;;;;28.53;13.47;;;5.70;99.90;;;;;;5072918;28;20179;-47
2023/12/15 01:29:58;;;;;;;27.23;13.27;;;5.70;99.90;;;;;;5073255;28;20723;-48
2023/12/15 01:32:36;;;;;;;25.20;12.73;;;5.80;99.90;;;;;;5073123;28;20191;-47
2023/12/15 01:35:06;;;;;;;19.47;10.40;;;5.70;99.90;;;;;;5073163;28;20620;-48
2023/12/15 01:37:34;;;;;;;21.00;12.23;;;5.80;99.90;;;;;;5055466;28;20244;-47
2023/12/15 01:40:00;;;;;;;21.07;11.00;;;5.80;99.90;;;;;;5073392;28;20255;-47
2023/12/15 01:42:57;;;;;;;20.93;11.83;;;5.80;99.90;;;;;;5073346;28;20209;-47
2023/12/15 01:45:39;;;;;;;20.70;11.37;;;5.80;99.90;;;;;;5073146;28;20265;-44
2023/12/15 01:48:07;;;;;;;18.77;12.10;;;5.80;99.90;;;;;;5073425;28;20269;-43
2023/12/15 01:50:33;;;;;;;23.17;12.27;;;5.80;99.90;;;;;;5073005;28;20232;-45
2023/12/15 01:53:00;;;;;;;23.03;13.43;;;5.80;99.90;;;;;;5073355;28;20178;-47
2023/12/15 01:55:28;;;;;;;25.30;13.40;;;5.80;99.90;;;;;;5073029;28;20661;-44
2023/12/15 01:57:54;;;;;;;28.13;13.30;;;5.80;99.90;;;;;;5073032;28;20186;-43
2023/12/15 02:00:23;;;;;;;23.47;12.30;;;5.80;99.90;;;;;;5073141;28;20213;-43
2023/12/15 02:02:58;;;;;;;24.00;12.33;;;5.80;99.90;;;;;;5073260;28;20201;-44
2023/12/15 02:05:25;;;;;;;21.10;12.70;;;5.80;99.90;;;;;;5072981;28;20158;-44
2023/12/15 02:07:50;;;;;;;19.63;11.90;;;5.80;99.90;;;;;;5073263;28;20166;-44
2023/12/15 02:10:17;;;;;;;18.80;11.27;;;5.80;99.90;;;;;;5072843;28;20282;-43
2023/12/15 02:12:56;;;;;;;18.17;11.77;;;5.80;99.90;;;;;;5073113;28;20570;-43
2023/12/15 02:15:23;;;;;;;25.03;12.77;;;5.80;99.90;;;;;;5076715;28;20186;-45
2023/12/15 02:17:50;;;;;;;24.57;12.17;;;5.80;99.90;;;;;;5076950;28;20262;-45
2023/12/15 02:20:16;;;;;;;19.37;12.73;;;5.90;99.90;;;;;;5076507;28;20198;-45
2023/12/15 02:22:41;;;;;;;17.67;10.40;;;5.90;99.90;;;;;;5076566;28;20264;-44
2023/12/15 02:25:31;;;;;;;19.50;12.43;;;5.90;99.90;;;;;;5076920;28;20647;-43
2023/12/15 02:27:57;;;;;;;23.13;12.27;;;5.90;99.90;;;;;;5076521;28;20193;-46
2023/12/15 02:30:22;;;;;;;19.97;11.47;;;5.90;99.90;;;;;;5076677;28;20209;-43
2023/12/15 02:32:51;;;;;;;20.67;12.40;;;5.90;99.90;;;;;;5076344;28;20247;-45
2023/12/15 02:35:24;;;;;;;24.67;13.27;;;5.90;99.90;;;;;;5076378;28;20207;-44
2023/12/15 02:37:50;;;;;;;22.20;12.03;;;5.90;99.90;;;;;;5076386;28;20232;-45
2023/12/15 02:40:16;;;;;;;21.90;12.97;;;5.90;99.90;;;;;;5076151;28;20213;-46
2023/12/15 02:43:12;;;;;;;22.47;12.60;;;5.90;99.90;;;;;;5076246;28;20607;-44
2023/12/15 02:45:38;;;;;;;25.00;13.37;;;5.90;99.90;;;;;;5076415;28;20627;-45
2023/12/15 02:48:04;;;;;;;20.80;13.27;;;6.00;99.90;;;;;;5076139;28;20261;-45
2023/12/15 02:50:29;;;;;;;25.97;14.60;;;5.90;99.90;;;;;;5076260;28;20248;-46
2023/12/15 02:52:55;;;;;;;30.63;15.43;;;5.90;99.90;;;;;;5076080;28;20194;-45
2023/12/15 02:55:24;;;;;;;26.93;15.67;;;6.00;99.90;;;;;;5076285;28;20191;-44
2023/12/15 02:57:52;;;;;;;27.77;15.67;;;6.00;99.90;;;;;;5075999;28;20183;-44
2023/12/15 03:00:24;;;;;;;25.00;15.20;;;6.00;99.90;;;;;;5075803;28;20215;-46
2023/12/15 03:02:59;;;;;;;25.03;14.80;;;6.00;99.90;;;;;;5075829;28;20643;-45
2023/12/15 03:05:27;;;;;;;28.80;15.03;;;5.90;99.90;;;;;;5076003;28;20204;-46
2023/12/15 03:07:53;;;;;;;26.73;15.17;;;6.00;99.90;;;;;;5076101;28;20232;-46
2023/12/15 03:10:19;;;;;;;30.60;15.40;;;6.00;99.90;;;;;;5075707;28;20560;-44
2023/12/15 03:12:44;;;;;;;26.13;15.00;;;6.00;99.90;;;;;;5057821;28;20214;-47
2023/12/15 03:15:13;;;;;;;24.87;14.13;;;6.00;99.90;;;;;;5075634;28;20184;-45
2023/12/15 03:17:42;;;;;;;25.60;12.57;;;6.00;99.90;;;;;;5075831;28;20191;-45
2023/12/15 03:20:09;;;;;;;27.00;12.97;;;6.00;99.90;;;;;;5075598;28;20234;-44
2023/12/15 03:22:38;;;;;;;23.30;13.10;;;6.00;99.90;;;;;;5075547;28;20537;-46
2023/12/15 03:25:05;;;;;;;22.73;11.93;;;6.00;99.90;;;;;;5075281;28;20220;-45
2023/12/15 03:27:34;;;;;;;22.90;11.57;;;6.00;99.90;;;;;;5057595;28;20194;-42
2023/12/15 03:33:26;;;;;;;18.97;10.70;;;6.00;99.90;;;;;;5013585;28;20217;-42
2023/12/15 03:36:03;;;;;;;18.67;10.90;;;6.10;99.90;;;;;;5016936;28;20200;-45
2023/12/15 03:38:29;;;;;;;20.70;10.63;;;6.10;99.90;;;;;;5075673;28;20542;-44
2023/12/15 03:40:54;;;;;;;16.53;10.33;;;6.10;99.90;;;;;;5075278;28;20213;-44
2023/12/15 03:43:26;;;;;;;19.77;10.87;;;6.10;99.90;;;;;;5075443;28;20224;-43
2023/12/15 03:45:54;;;;;;;21.13;10.83;;;6.10;99.90;;;;;;5074991;28;20722;-44
2023/12/15 03:48:31;;;;;;;18.20;10.63;;;6.10;99.90;;;;;;5075032;28;20176;-44
2023/12/15 03:50:56;;;;;;;17.37;10.53;;;6.10;99.90;;;;;;5075168;28;20198;-44
2023/12/15 03:53:50;;;;;;;21.83;11.13;;;6.10;99.90;;;;;;5057078;28;20477;-45
2023/12/15 03:56:24;;;;;;;19.27;11.47;;;6.10;99.90;;;;;;5075257;28;20213;-44
2023/12/15 03:59:00;;;;;;;22.00;11.43;;;6.10;99.90;;;;;;5041649;28;20681;-44
2023/12/15 04:04:54;;;;;;;19.30;11.03;;;6.10;99.90;;;;;;5075203;28;20289;-42
2023/12/15 04:07:19;;;;;;;21.07;11.87;;;6.10;99.90;;;;;;5074651;28;20168;-43
2023/12/15 04:09:48;;;;;;;21.37;13.23;;;6.10;99.90;;;;;;5074485;28;20213;-44
2023/12/15 04:12:15;;;;;;;25.20;12.03;;;6.10;99.90;;;;;;5074440;28;20239;-44
2023/12/15 04:14:41;;;;;;;21.87;12.10;;;6.10;99.90;;;;;;5056841;28;20186;-45
2023/12/15 04:17:07;;;;;;;24.07;12.00;;;6.20;99.90;;;;;;5074365;28;20277;-43
2023/12/15 04:19:36;;;;;;;24.20;12.93;;;6.20;99.90;;;;;;5063528;28;20586;-44
2023/12/15 04:22:07;;;;;;;23.50;12.77;;;6.20;99.90;;;;;;5074224;28;20206;-45
2023/12/15 04:24:34;;;;;;;21.80;12.20;;;6.20;99.90;;;;;;5074320;28;20300;-43
2023/12/15 04:27:03;;;;;;;19.37;11.73;;;6.20;99.90;;;;;;5074495;28;20210;-43
2023/12/15 04:29:28;;;;;;;18.53;12.57;;;6.20;99.90;;;;;;5074363;28;20621;-44
2023/12/15 04:31:54;;;;;;;23.37;11.90;;;6.20;99.90;;;;;;5074385;28;20195;-45
2023/12/15 04:34:29;;;;;;;19.87;11.70;;;6.20;99.90;;;;;;5074360;28;20316;-45
2023/12/15 04:36:55;;;;;;;21.03;12.07;;;6.20;99.90;;;;;;5073402;28;20685;-44
2023/12/15 04:39:21;;;;;;;21.83;11.60;;;6.20;99.90;;;;;;5074183;28;20209;-45
2023/12/15 04:41:47;;;;;;;19.10;11.07;;;6.30;99.90;;;;;;5073837;28;20261;-44
2023/12/15 04:44:14;;;;;;;18.23;11.20;;;6.30;99.90;;;;;;5074205;28;20186;-45
2023/12/15 04:46:55;;;;;;;16.47;10.17;;;6.30;99.90;;;;;;5074153;28;20305;-44
2023/12/15 04:49:22;;;;;;;16.53;11.00;;;6.30;99.90;;;;;;5074026;28;20282;-44
2023/12/15 04:51:49;;;;;;;19.27;10.93;;;6.30;99.90;;;;;;5071501;28;20199;-45
2023/12/15 04:54:21;;;;;;;16.70;10.00;;;6.30;99.90;;;;;;5074076;28;20286;-44
2023/12/15 04:56:47;;;;;;;19.87;11.17;;;6.30;99.90;;;;;;5074029;28;20172;-45
2023/12/15 04:59:12;;;;;;;18.27;11.57;;;6.30;99.90;;;;;;5056422;28;20561;-44
2023/12/15 05:05:53;;;;;;;19.43;11.90;;;6.30;99.90;;;;;;5012115;28;20208;-45
2023/12/15 05:08:19;;;;;;;21.33;12.47;;;6.30;99.90;;;;;;5049846;28;20558;-43
2023/12/15 05:10:45;;;;;;;20.23;12.43;;;6.40;99.90;;;;;;5073501;28;20679;-45
2023/12/15 05:13:11;;;;;;;19.17;11.93;;;6.30;99.90;;;;;;5073763;28;20210;-44
2023/12/15 05:15:37;;;;;;;18.33;11.33;;;6.40;99.90;;;;;;5073487;28;20666;-44
2023/12/15 05:18:07;;;;;;;17.50;11.40;;;6.40;99.90;;;;;;5073349;28;20185;-47
2023/12/15 05:20:37;;;;;;;18.20;11.67;;;6.40;99.90;;;;;;5055804;28;20221;-46
2023/12/15 05:23:08;;;;;;;18.83;12.67;;;6.40;99.90;;;;;;5073618;28;20183;-45
2023/12/15 05:25:35;;;;;;;23.40;13.40;;;6.40;99.90;;;;;;5072679;28;20562;-45
2023/12/15 05:28:01;;;;;;;21.67;12.90;;;6.40;99.90;;;;;;5073304;28;20182;-45
2023/12/15 05:30:30;;;;;;;22.50;12.63;;;6.40;99.90;;;;;;5073296;28;20195;-44
2023/12/15 05:32:56;;;;;;;23.07;12.43;;;6.50;99.90;;;;;;5055729;28;20191;-45
2023/12/15 05:35:21;;;;;;;25.13;13.73;;;6.50;99.90;;;;;;5073221;28;20201;-48
2023/12/15 05:37:49;;;;;;;23.93;13.80;;;6.40;99.90;;;;;;5073555;28;20162;-47
2023/12/15 05:40:16;;;;;;;24.47;13.47;;;6.50;99.90;;;;;;5055753;28;20214;-48
2023/12/15 05:46:05;;;;;;;27.47;13.60;;;6.50;99.90;;;;;;5073279;28;20697;-48
2023/12/15 05:48:39;;;;;;;35.47;15.40;;;6.50;99.90;;;;;;5056871;28;20274;-48
2023/12/15 05:51:08;;;;;;;24.37;14.20;;;6.50;99.90;;;;;;5077216;28;20174;-47
2023/12/15 05:53:39;;;;;;;28.90;15.27;;;6.50;99.90;;;;;;5077220;28;20187;-48
2023/12/15 05:56:07;;;;;;;27.73;14.80;;;6.50;99.90;;;;;;5059776;28;20282;-47
2023/12/15 05:58:36;;;;;;;29.57;15.40;;;6.50;99.90;;;;;;5059282;28;20199;-47
2023/12/15 06:01:02;;;;;;;33.30;15.37;;;6.50;99.90;;;;;;5076970;28;20214;-48
2023/12/15 06:03:28;;;;;;;33.60;16.57;;;6.50;99.90;;;;;;5077039;28;20175;-47
2023/12/15 06:05:53;;;;;;;34.53;16.63;;;6.50;99.90;;;;;;5059457;28;20271;-47
2023/12/15 06:08:21;;;;;;;39.00;18.03;;;6.50;99.90;;;;;;5059243;28;20536;-48
2023/12/15 06:10:48;;;;;;;34.40;17.47;;;6.60;99.90;;;;;;5076743;28;20737;-47
2023/12/15 06:13:13;;;;;;;37.47;18.47;;;6.50;99.90;;;;;;5042308;28;20564;-48
2023/12/15 06:15:42;;;;;;;45.43;18.33;;;6.50;99.90;;;;;;5058761;28;20179;-47
2023/12/15 06:18:08;;;;;;;34.47;17.17;;;6.60;99.90;;;;;;5076938;28;20665;-48
2023/12/15 06:20:38;;;;;;;32.97;15.97;;;6.60;99.90;;;;;;5058885;28;20219;-48
2023/12/15 06:23:04;;;;;;;40.23;17.83;;;6.60;99.90;;;;;;5077407;28;20683;-48
2023/12/15 06:25:33;;;;;;;43.03;17.37;;;6.60;99.90;;;;;;5076510;28;20178;-47
2023/12/15 06:27:59;;;;;;;37.93;17.57;;;6.60;99.90;;;;;;5076730;28;20236;-48
2023/12/15 06:30:25;;;;;;;40.20;18.83;;;6.60;99.90;;;;;;5058618;28;20211;-47
2023/12/15 06:32:52;;;;;;;39.03;18.27;;;6.60;99.90;;;;;;5058570;28;20187;-50
2023/12/15 06:35:19;;;;;;;43.00;19.10;;;6.60;99.90;;;;;;5042656;28;20190;-49
2023/12/15 06:37:50;;;;;;;42.40;18.17;;;6.60;99.90;;;;;;5058580;28;20234;-49
2023/12/15 06:40:17;;;;;;;37.70;17.20;;;6.60;99.90;;;;;;5073978;28;20210;-49
2023/12/15 06:42:49;;;;;;;42.17;17.23;;;6.60;99.90;;;;;;5058488;28;20179;-50
2023/12/15 06:45:15;;;;;;;42.83;19.87;;;6.60;99.90;;;;;;5076454;28;20183;-47
2023/12/15 06:47:40;;;;;;;49.43;20.70;;;6.60;99.90;;;;;;5058598;28;20711;-49
2023/12/15 06:50:08;;;;;;;42.77;18.23;;;6.70;99.90;;;;;;5058541;28;20337;-48
2023/12/15 06:52:35;;;;;;;43.03;19.17;;;6.60;99.90;;;;;;5076663;28;20254;-47
2023/12/15 06:55:05;;;;;;;44.33;19.47;;;6.70;99.90;;;;;;5076283;28;20188;-48
2023/12/15 06:57:31;;;;;;;38.70;17.87;;;6.70;99.90;;;;;;5041288;28;20192;-47
2023/12/15 06:59:57;;;;;;;52.43;19.37;;;6.70;99.90;;;;;;5075296;28;20213;-48
2023/12/15 07:02:32;;;;;;;42.23;19.53;;;6.70;99.90;;;;;;5041361;28;20207;-49
2023/12/15 07:04:59;;;;;;;42.37;19.23;;;6.70;99.90;;;;;;5058333;28;20178;-48
2023/12/15 07:07:25;;;;;;;44.43;19.20;;;6.70;99.90;;;;;;5057210;28;20214;-48
2023/12/15 07:09:54;;;;;;;39.00;18.20;;;6.70;99.90;;;;;;5075696;28;20674;-49
2023/12/15 07:12:20;;;;;;;47.17;18.93;;;6.80;99.90;;;;;;5075901;28;20185;-48
2023/12/15 07:14:49;;;;;;;45.37;19.93;;;6.70;99.90;;;;;;5075904;28;20176;-48
2023/12/15 07:17:19;;;;;;;45.77;20.47;;;6.70;99.90;;;;;;5057838;28;20205;-48
2023/12/15 07:19:45;;;;;;;53.87;19.87;;;6.70;99.90;;;;;;5075504;28;20202;-49
2023/12/15 07:22:11;;;;;;;48.87;18.70;;;6.70;99.90;;;;;;5075380;28;20610;-48
2023/12/15 07:24:46;;;;;;;45.77;20.03;;;6.70;99.90;;;;;;5075745;28;20203;-50
2023/12/15 07:27:13;;;;;;;49.77;19.87;;;6.70;99.90;;;;;;5075765;28;20529;-48
2023/12/15 07:29:40;;;;;;;48.83;19.93;;;6.80;99.90;;;;;;5074333;28;20753;-50
2023/12/15 07:32:06;;;;;;;51.67;20.03;;;6.80;99.90;;;;;;5058075;28;20188;-49
2023/12/15 07:34:31;;;;;;;48.53;20.97;;;6.80;99.90;;;;;;5057538;28;20539;-48
2023/12/15 07:36:57;;;;;;;49.37;19.93;;;6.80;99.90;;;;;;5075179;28;20214;-49
2023/12/15 07:39:23;;;;;;;42.90;19.47;;;6.80;99.90;;;;;;5075416;28;20725;-48
2023/12/15 07:41:51;;;;;;;55.90;21.83;;;6.80;99.90;;;;;;5075435;28;20674;-50
2023/12/15 07:44:17;;;;;;;48.57;21.83;;;6.80;99.90;;;;;;5075445;28;20164;-48
2023/12/15 07:46:43;;;;;;;55.27;19.63;;;6.80;99.90;;;;;;5075037;28;20176;-48
2023/12/15 07:52:32;;;;;;;42.20;20.43;;;6.80;99.90;;;;;;5075048;28;20166;-48
2023/12/15 07:54:58;;;;;;;49.50;19.20;;;6.80;99.90;;;;;;5075372;28;20184;-44
2023/12/15 07:57:26;;;;;;;48.50;19.40;;;6.80;99.90;;;;;;5074780;28;20179;-45
2023/12/15 07:59:53;;;;;;;44.33;19.43;;;6.80;99.90;;;;;;5075014;28;20195;-44
2023/12/15 08:02:21;;;;;;;49.33;20.70;;;6.90;99.90;;;;;;5075486;28;20539;-43
2023/12/15 08:04:50;;;;;;;48.10;20.37;;;6.90;99.90;;;;;;5074717;28;20171;-42
2023/12/15 08:07:16;;;;;;;43.37;19.83;;;6.90;99.90;;;;;;5074777;28;20174;-43
2023/12/15 08:09:43;;;;;;;46.43;20.33;;;6.90;99.90;;;;;;5074852;28;20682;-44
2023/12/15 08:12:09;;;;;;;43.67;20.10;;;6.90;99.90;;;;;;5073867;28;20176;-42
2023/12/15 08:14:36;;;;;;;53.80;20.80;;;6.90;99.90;;;;;;5074518;28;20180;-44
2023/12/15 08:17:02;;;;;;;47.67;21.27;;;7.00;99.90;;;;;;5075116;28;20172;-42
2023/12/15 08:19:31;;;;;;;52.60;19.87;;;7.00;99.90;;;;;;5074332;28;20196;-45
2023/12/15 08:21:59;;;;;;;52.33;20.70;;;7.00;99.90;;;;;;5074555;28;20211;-43
2023/12/15 08:24:27;;;;;;;60.20;21.80;;;7.00;99.90;;;;;;5056667;28;20560;-44
2023/12/15 08:26:53;;;;;;;49.23;20.13;;;7.00;99.90;;;;;;5074027;28;20604;-43
2023/12/15 08:29:20;;;;;;;47.80;21.17;;;7.00;99.90;;;;;;5056893;28;20629;-42
2023/12/15 08:31:49;;;;;;;43.87;19.97;;;7.00;99.90;;;;;;5056601;28;20568;-43
2023/12/15 08:34:21;;;;;;;48.67;19.60;;;7.00;99.90;;;;;;5073930;28;20225;-44
2023/12/15 08:36:46;;;;;;;48.97;19.43;;;7.00;99.90;;;;;;5056185;28;20627;-43
2023/12/15 08:39:12;;;;;;;54.67;21.00;;;7.00;99.90;;;;;;5073972;28;20278;-45
2023/12/15 08:41:38;;;;;;;52.17;21.77;;;7.60;99.90;;;;;;5039517;28;20268;-44
2023/12/15 08:44:04;;;;;;;55.40;21.40;;;7.10;99.90;;;;;;5073880;28;20175;-43
2023/12/15 08:46:32;;;;;;;44.77;19.13;;;7.10;99.90;;;;;;5055967;28;20643;-44
2023/12/15 08:48:58;;;;;;;55.30;21.40;;;7.10;99.90;;;;;;5074085;28;20196;-43
2023/12/15 08:51:24;;;;;;;53.37;21.27;;;7.10;99.90;;;;;;5073881;28;20237;-44
2023/12/15 08:53:49;;;;;;;57.97;23.63;;;7.20;99.90;;;;;;5056086;28;20262;-42
2023/12/15 08:56:15;;;;;;;63.13;23.53;;;7.20;99.90;;;;;;5055962;28;20180;-43
2023/12/15 08:58:42;;;;;;;53.23;21.13;;;7.30;99.90;;;;;;5073642;28;20541;-43
2023/12/15 09:01:15;;;;;;;56.10;22.23;;;7.20;99.90;;;;;;5073894;28;20235;-43
2023/12/15 09:03:46;;;;;;;53.07;22.23;;;7.20;99.90;;;;;;5073605;28;20254;-43
2023/12/15 09:06:12;;;;;;;53.87;22.33;;;7.30;99.90;;;;;;5073842;28;20167;-43
2023/12/15 09:08:40;;;;;;;50.37;21.47;;;7.30;99.90;;;;;;5072730;28;20769;-45
2023/12/15 09:11:06;;;;;;;48.70;20.80;;;7.30;99.90;;;;;;5073525;28;20644;-43
2023/12/15 09:13:35;;;;;;;55.07;21.37;;;7.40;99.90;;;;;;5073487;28;20179;-42
2023/12/15 09:16:01;;;;;;;55.77;21.13;;;7.40;99.90;;;;;;5073754;28;20242;-45
2023/12/15 09:18:27;;;;;;;58.97;23.37;;;7.30;99.90;;;;;;5055661;28;20208;-44
2023/12/15 09:21:15;;;;;;;67.97;22.77;;;7.40;99.90;;;;;;5055418;28;20220;-44
2023/12/15 09:23:41;;;;;;;62.77;23.40;;;7.40;99.90;;;;;;5073228;28;20187;-43
2023/12/15 09:26:13;;;;;;;69.13;22.97;;;7.40;99.90;;;;;;5055865;28;20515;-43
2023/12/15 09:28:39;;;;;;;52.57;20.87;;;7.40;99.90;;;;;;5073280;28;20175;-42
2023/12/15 09:31:05;;;;;;;53.63;21.00;;;7.40;99.90;;;;;;5073598;28;20659;-43
2023/12/15 09:33:31;;;;;;;61.40;22.30;;;7.40;99.90;;;;;;5073129;28;20183;-43
2023/12/15 09:35:57;;;;;;;67.20;23.70;;;7.40;99.90;;;;;;5055651;28;20209;-42
2023/12/15 09:38:29;;;;;;;58.30;22.77;;;7.40;99.90;;;;;;5073295;28;20187;-44
2023/12/15 09:40:55;;;;;;;61.67;22.63;;;7.50;99.90;;;;;;5073123;28;20207;-44
2023/12/15 09:43:21;;;;;;;56.90;21.77;;;7.50;99.90;;;;;;5073236;28;20179;-43
2023/12/15 09:45:56;;;;;;;55.53;22.73;;;7.50;99.90;;;;;;5073175;28;20556;-43
2023/12/15 09:48:23;;;;;;;57.50;21.97;;;7.60;99.90;;;;;;5073808;28;20523;-45
2023/12/15 09:50:54;;;;;;;67.17;25.00;;;7.60;99.90;;;;;;5072252;28;20717;-45
2023/12/15 09:53:21;;;;;;;52.90;19.70;;;7.60;99.90;;;;;;5073401;28;20631;-45
2023/12/15 09:55:53;;;;;;;60.17;22.50;;;7.60;99.90;;;;;;5054065;28;20200;-45
2023/12/15 09:58:20;;;;;;;66.83;20.77;;;7.70;99.90;;;;;;5073038;28;20646;-43
2023/12/15 10:00:47;;;;;;;65.83;23.13;;;7.70;99.90;;;;;;5073227;28;20212;-44
2023/12/15 10:03:14;;;;;;;59.17;22.27;;;7.70;99.90;;;;;;5073214;28;20179;-46
2023/12/15 10:05:41;;;;;;;59.07;21.70;;;7.70;99.90;;;;;;5055424;28;20190;-45
2023/12/15 10:08:10;;;;;;;70.80;22.90;;;7.70;99.90;;;;;;5073031;28;20187;-44
2023/12/15 10:10:36;;;;;;;63.47;22.37;;;7.80;99.90;;;;;;5055596;28;20191;-44
2023/12/15 10:13:02;;;;;;;56.53;21.03;;;7.80;99.90;;;;;;5055147;28;20275;-43
2023/12/15 10:15:27;;;;;;;63.00;22.97;;;7.80;99.90;;;;;;5072975;28;20179;-45
2023/12/15 10:17:54;;;;;;;71.57;23.57;;;7.90;99.90;;;;;;5073467;28;20179;-47
2023/12/15 10:20:23;;;;;;;58.30;22.20;;;7.90;99.90;;;;;;5072085;28;20214;-49
2023/12/15 10:23:14;;;;;;;62.53;22.93;;;7.90;99.90;;;;;;5072831;28;20191;-48
2023/12/15 10:25:47;;;;;;;61.83;21.53;;;8.00;99.90;;;;;;5073402;28;20184;-49
2023/12/15 10:28:20;;;;;;;56.50;22.53;;;8.00;99.90;;;;;;5073045;28;20724;-48
2023/12/15 10:30:52;;;;;;;63.77;23.67;;;8.00;99.90;;;;;;5056248;28;20631;-48
2023/12/15 10:33:29;;;;;;;69.27;23.90;;;8.10;99.90;;;;;;5073021;28;20167;-47
2023/12/15 10:36:01;;;;;;;56.47;20.40;;;8.00;99.90;;;;;;5071339;28;20207;-48
2023/12/15 10:41:51;;;;;;;53.30;21.60;;;8.10;99.90;;;;;;5076315;28;20202;-47
2023/12/15 10:44:24;;;;;;;60.43;21.87;;;8.10;99.90;;;;;;5076158;28;20210;-48
2023/12/15 10:46:50;;;;;;;51.80;21.03;;;8.10;99.90;;;;;;5076764;28;20206;-47
2023/12/15 10:49:21;;;;;;;66.50;24.53;;;8.20;99.90;;;;;;5076115;28;20241;-48
2023/12/15 10:51:49;;;;;;;52.47;21.73;;;8.20;99.90;;;;;;5058137;28;20191;-48
2023/12/15 10:54:17;;;;;;;58.00;21.40;;;8.20;99.90;;;;;;5075930;28;20187;-48
2023/12/15 10:56:43;;;;;;;55.87;21.83;;;8.20;99.90;;;;;;5076201;28;20180;-47
2023/12/15 10:59:10;;;;;;;65.90;23.03;;;8.30;99.90;;;;;;5058002;28;20756;-47
2023/12/15 11:01:43;;;;;;;59.57;22.30;;;8.30;99.90;;;;;;5076103;28;20213;-47
2023/12/15 11:04:21;;;;;;;56.20;20.93;;;8.30;99.90;;;;;;5058156;28;20195;-48
2023/12/15 11:06:48;;;;;;;62.10;23.77;;;8.30;99.90;;;;;;5075884;28;20267;-48
2023/12/15 11:09:33;;;;;;;54.93;21.87;;;8.40;99.90;;;;;;5075740;28;20187;-47
2023/12/15 11:12:22;;;;;;;56.83;22.27;;;8.40;99.90;;;;;;5075938;28;20163;-47
2023/12/15 11:15:20;;;;;;;59.63;21.77;;;8.40;99.90;;;;;;5075623;28;20673;-48
2023/12/15 11:17:58;;;;;;;56.13;22.63;;;8.40;99.90;;;;;;5074118;28;20215;-48
2023/12/15 11:20:28;;;;;;;57.13;23.23;;;8.40;99.90;;;;;;5057946;28;20217;-49
2023/12/15 11:23:11;;;;;;;56.30;22.53;;;8.50;99.90;;;;;;5052241;28;20278;-47
2023/12/15 11:25:46;;;;;;;57.10;22.47;;;8.50;99.90;;;;;;5075853;28;20152;-47
2023/12/15 11:28:18;;;;;;;49.23;21.73;;;8.50;99.90;;;;;;5075553;28;20156;-47
2023/12/15 11:30:52;;;;;;;55.90;23.90;;;8.50;99.90;;;;;;5057470;28;20301;-47
2023/12/15 11:33:40;;;;;;;63.63;21.83;;;8.50;99.90;;;;;;5075397;28;20161;-47
2023/12/15 11:36:07;;;;;;;54.20;22.70;;;8.60;99.90;;;;;;5075362;28;20191;-48
2023/12/15 11:38:42;;;;;;;54.70;23.40;;;8.60;99.90;;;;;;5057730;28;20664;-48
2023/12/15 11:41:13;;;;;;;55.03;22.30;;;8.60;99.90;;;;;;5075398;28;20280;-47
2023/12/15 11:43:40;;;;;;;52.73;22.23;;;8.60;99.90;;;;;;5058334;28;20175;-48
2023/12/15 11:46:11;;;;;;;54.33;20.80;;;8.60;99.90;;;;;;5075037;28;20171;-48
2023/12/15 11:48:37;;;;;;;49.67;23.03;;;8.70;99.90;;;;;;5056903;28;20186;-48
2023/12/15 11:51:03;;;;;;;53.87;22.50;;;8.70;99.90;;;;;;5057326;28;20180;-47
2023/12/15 11:53:32;;;;;;;53.53;23.53;;;8.70;99.90;;;;;;5075221;28;20211;-48
2023/12/15 11:56:04;;;;;;;57.13;23.63;;;8.70;99.90;;;;;;5075402;28;20195;-49
2023/12/15 11:58:46;;;;;;;60.63;24.77;;;8.70;99.90;;;;;;5057863;28;20219;-47
2023/12/15 12:01:12;;;;;;;50.50;22.67;;;8.70;99.90;;;;;;5075225;28;20190;-49
2023/12/15 12:03:44;;;;;;;48.53;23.23;;;8.80;99.90;;;;;;5056823;28;20177;-48
2023/12/15 12:06:10;;;;;;;48.67;23.20;;;8.70;99.90;;;;;;5074864;28;20625;-47
2023/12/15 12:08:45;;;;;;;49.13;22.87;;;8.80;99.90;;;;;;5075164;28;20170;-47
2023/12/15 12:11:10;;;;;;;54.03;21.33;;;8.80;99.90;;;;;;5075166;28;20171;-47
2023/12/15 12:13:39;;;;;;;48.93;22.67;;;8.80;99.90;;;;;;5074570;28;20190;-47
2023/12/15 12:16:07;;;;;;;53.03;22.53;;;8.80;99.90;;;;;;5074840;28;20195;-50
2023/12/15 12:18:36;;;;;;;46.53;23.07;;;8.80;99.90;;;;;;5074853;28;20206;-49
2023/12/15 12:21:06;;;;;;;54.97;22.43;;;8.80;99.90;;;;;;5074239;28;20204;-47
2023/12/15 12:23:41;;;;;;;50.77;21.40;;;8.90;99.90;;;;;;5074392;28;20181;-48
2023/12/15 12:26:08;;;;;;;53.40;22.73;;;8.80;99.90;;;;;;5074312;28;20236;-49
2023/12/15 12:28:48;;;;;;;46.53;21.57;;;8.90;99.90;;;;;;5056835;28;20179;-49
2023/12/15 12:31:22;;;;;;;41.37;20.20;;;8.90;99.90;;;;;;5074548;28;20160;-48
2023/12/15 12:33:47;;;;;;;52.53;21.77;;;8.90;99.90;;;;;;5071295;28;20191;-49
2023/12/15 12:36:19;;;;;;;42.70;20.67;;;8.90;99.90;;;;;;5074205;28;20591;-48
2023/12/15 12:38:46;;;;;;;43.13;21.13;;;8.90;99.90;;;;;;5074587;28;20591;-48
2023/12/15 12:41:15;;;;;;;46.90;20.83;;;9.00;99.90;;;;;;5074221;28;20203;-48
2023/12/15 12:43:43;;;;;;;38.20;18.87;;;8.90;99.90;;;;;;5074242;28;20182;-49
2023/12/15 12:46:13;;;;;;;40.33;19.27;;;9.00;99.90;;;;;;5073966;28;20175;-49
2023/12/15 12:48:43;;;;;;;44.53;19.93;;;9.00;99.90;;;;;;5040284;28;20207;-50
2023/12/15 12:51:08;;;;;;;41.43;19.90;;;9.00;99.90;;;;;;5074495;28;20177;-49
2023/12/15 12:53:36;;;;;;;39.43;19.07;;;9.00;99.90;;;;;;5074576;28;20188;-44
2023/12/15 12:56:03;;;;;;;42.80;19.97;;;9.00;99.90;;;;;;5073624;28;20659;-45
2023/12/15 12:58:36;;;;;;;40.23;20.87;;;9.00;99.90;;;;;;5072882;28;20209;-45
2023/12/15 13:01:02;;;;;;;39.43;18.80;;;9.00;99.90;;;;;;5074027;28;20213;-42
2023/12/15 13:03:28;;;;;;;35.07;17.47;;;9.10;99.90;;;;;;5075130;28;20225;-43
2023/12/15 13:05:55;;;;;;;35.87;18.90;;;9.00;99.90;;;;;;5039103;28;20226;-43
2023/12/15 13:08:20;;;;;;;41.70;17.93;;;9.10;99.90;;;;;;5073190;28;20668;-44